KBCB Airport Information

Runway Information
Runway 08 Length 2850 ft width 150 ft
Elevation 0 ft Threshold 0 ft Heading 71
Runway 26 Length 2850 ft Width 150 ft
Elevation 0 ft Threshold 0 ft Heading 251
Runway 12 Length 4539 ft width 100 ft
Elevation 2113 ft Threshold 0 ft Heading 117
Runway 30 Length 4539 ft Width 100 ft
Elevation 2132 ft Threshold 0 ft Heading 297
Airport Frequencies
Type A/D Name ROANOKE AP Frequency 126.9 MHZ
Type AWOS Name AWOS 3 Frequency 133.325 MHZ
Type CLD Name ROANOKE CL Frequency 124.85 MHZ
Type UNIC Name CTAF/UNICO Frequency 123.05 MHZ
Airport Navaids
Airport Weather Information & NOTAM
ADDS - METARS form results

(0155 UTC 16 January 2021)
Data provider http://aviationweather.gov/metar/data/
 
METAR text: KBCB 160135Z AUTO 00000KT 1/2SM FZFG OVC001 M02/M02 A2972 RMK AO2 T10251025
Conditions at: KBCB (BLACKSBURG/VA T., VA, US) observed 0135 UTC 16 January 2021
Temperature: -2.5°C (28°F)
Dewpoint: -2.5°C (28°F) [RH = 100%]
Pressure (altimeter): 29.72 inches Hg (1006.5 mb)
Winds: calm
Visibility: 0.50 miles (0.80 km)
Ceiling: 100 feet AGL
Clouds: overcast cloud deck at 100 feet AGL
Weather: FZFG  (freezing fog)

METAR text: KBCB 160115Z AUTO 00000KT 1/4SM FZFG OVC001 M02/M02 A2973 RMK AO2 T10251025
Conditions at: KBCB (BLACKSBURG/VA T., VA, US) observed 0115 UTC 16 January 2021
Temperature: -2.5°C (28°F)
Dewpoint: -2.5°C (28°F) [RH = 100%]
Pressure (altimeter): 29.73 inches Hg (1006.9 mb)
Winds: calm
Visibility: 0.25 miles (0.40 km)
Ceiling: 100 feet AGL
Clouds: overcast cloud deck at 100 feet AGL
Weather: FZFG  (freezing fog)

Forecast for: KBCB (BLACKSBURG/VA T., VA, US)
Text: KBCB 152320Z 1600/1624 00000KT 1/4SM FZFG OVC001
Forecast period: 0000 to 0800 UTC 16 January 2021
Forecast type: FROM: standard forecast or significant change
Winds: calm
Visibility: 0.25 miles (0.40 km)
Ceiling: 100 feet AGL
Clouds: overcast cloud deck at 100 feet AGL
Weather: FZFG  (freezing fog)
Text: FM160800 00000KT 4SM BR OVC050
Forecast period: 0800 to 1300 UTC 16 January 2021
Forecast type: FROM: standard forecast or significant change
Winds: calm
Visibility: 4 miles (6 km)
Ceiling: 5000 feet AGL
Clouds: overcast cloud deck at 5000 feet AGL
Weather: BR  (mist)
Text: FM161300 VRB02KT 6SM BR SCT025 OVC050
Forecast period: 1300 to 1700 UTC 16 January 2021
Forecast type: FROM: standard forecast or significant change
Winds: variable direction winds at 2 MPH (2 knots; 1.0 m/s)
Visibility: 6 miles (10 km)
Ceiling: 5000 feet AGL
Clouds: scattered clouds at 2500 feet AGL
overcast cloud deck at 5000 feet AGL
Weather: BR  (mist)
Text: FM161700 27010G17KT P6SM BKN035
Forecast period: 1700 UTC 16 January 2021 to 0000 UTC 17 January 2021
Forecast type: FROM: standard forecast or significant change
Winds: from the W (270 degrees) at 12 MPH (10 knots; 5.1 m/s)
gusting to 20 MPH (17 knots; 8.7 m/s)
Visibility: 6 or more miles (10+ km)
Ceiling: 3500 feet AGL
Clouds: broken clouds at 3500 feet AGL
Weather: no significant weather forecast for this period